Nearby METAR Reports

 

KIAG - Niagara Falls, New York, USA
Distance from station: W 12mi, 20km
Updated: 09/25/2020 4:53am
Clear
Clear
 Wind from S
Wind: S 6 mph , 9 km/h
Temperature: 61°F , 16°C
Dew Point: 59°F , 15°C
Humidity: 94%
Barometer: 1015.9 hPa
Clouds: Clear
Visibility: 8 miles , 13 km
2020/09/25 08:53 KIAG 250853Z AUTO 19005KT 8SM CLR 16/15 A3000 RMK AO2 SLP156 T01560150 53003 $
KBUF - Buffalo/Cheektow, New York, USA
Distance from station: S 13mi, 21km
Updated: 09/25/2020 4:54am
Few Clouds
Few Clouds
 Wind from SSW
Wind: SSW 6 mph , 9 km/h
Temperature: 59°F , 15°C
Dew Point: 52°F , 11°C
Humidity: 77%
Barometer: 1016.3 hPa
Clouds: Few Clouds
Visibility: 10 miles , 16 km
Cloud details: Few Clouds 17000 ft
2020/09/25 08:54 KBUF 250854Z 20005KT 10SM FEW170 15/11 A3001 RMK AO2 SLP159 T01500111 51001
 
KROC - Rochester, New York, USA
Distance from station: E 51mi, 82km
Updated: 09/25/2020 4:54am
Partly cloudy
Partly cloudy
 Wind from SW
Wind: SW 7 mph , 11 km/h
Temperature: 57°F , 14°C
Dew Point: 55°F , 13°C
Humidity: 94%
Barometer: 1016.3 hPa
Clouds: Partly cloudy
Visibility: 10 miles , 16 km
Cloud details: Few Clouds 5500 ft
Partly cloudy 14000 ft
2020/09/25 08:54 KROC 250854Z 23006KT 10SM FEW055 SCT140 14/13 A3001 RMK AO2 SLP163 T01390128 53001 $
CYSN - St. Catharines A, Ontario, Canada
Distance from station: WNW 25mi, 40km
Updated: 09/24/2020 9:00pm
NOT Current
Mostly cloudy
Mostly cloudy
 Wind from SW
Wind: SW 12 mph , 19 km/h
Temperature: 68°F , 20°C
Dew Point: 61°F , 16°C
Humidity: 78%
Barometer: 1013.9 hPa
Clouds: Mostly cloudy
Visibility: 15 miles , 24 km
Cloud details: Few Clouds 5500 ft
Mostly cloudy 15000 ft
2020/09/25 01:00 CYSN 250100Z 22010KT 15SM FEW055 BKN150 20/16 A2994 RMK SC1AC5 LAST STFD OBS/NEXT 25 1100UTC SLP140 DENSITY ALT 1000FT
 
KOLE - Olean, New York, USA
Distance from station: SSE 63mi, 102km
Updated: 09/25/2020 4:55am
Mist, Overcast
Mist, Overcast
 Wind from SSW
Wind: SSW 7 mph , 11 km/h
Temperature: 52°F , 11°C
Dew Point: 52°F , 11°C
Humidity: 100%
Barometer: 1018.3 hPa
Summary: Mist
Clouds: Overcast
Visibility: 3/4 mile , 1.2 km
Cloud details: Overcast 200 ft
2020/09/25 08:55 KOLE 250855Z AUTO 20006KT 3/4SM BR OVC002 11/11 A3007 RMK AO2
KJHW - Jamestown, New York, USA
Distance from station: SSW 74mi, 119km
Updated: 09/25/2020 4:56am
Fog, Clear
Fog, Clear
 Wind from S
Wind: S 5 mph , 7 km/h
Temperature: 54°F , 12°C
Dew Point: 54°F , 12°C
Humidity: 100%
Barometer: 1017.9 hPa
Summary: Fog
Clouds: Clear
Visibility: 1/4 mile , 0.4 km
2020/09/25 08:56 KJHW 250856Z AUTO 18004KT 1/4SM FG CLR 12/12 A3006 RMK AO2 SLP180 T01220122 55000 RVRNO
 
CWWZ - Port Weller (mar, Ontario, Canada
Distance from station: WNW 28mi, 45km
Updated: 09/25/2020 4:00am

 Wind from SSW
Wind: SSW 7 mph , 11 km/h
Temperature: 64°F , 18°C
Dew Point: 59°F , 15°C
Humidity: 83%
2020/09/25 08:00 CWWZ 250800Z AUTO 20006KT 18/15 RMK AO1 SLP152 T01750153 51002
CWPC - Port Colborne(Au, Ontario, Canada
Distance from station: WSW 33mi, 53km
Updated: 09/25/2020 4:00am

 Wind from WSW
Wind: WSW 12 mph , 19 km/h
Temperature: 66°F , 19°C
Dew Point: 61°F , 16°C
Humidity: 83%
2020/09/25 08:00 CWPC 250800Z AUTO 24010KT 19/16 RMK AO1 SLP163 T01900155 50001
 
CXVN - Vineland (au8), Ontario, Canada
Distance from station: W 36mi, 58km
Updated: 09/25/2020 4:00am

 Wind from S
Wind: S 5 mph , 7 km/h
Temperature: 61°F , 16°C
Dew Point: 55°F , 13°C
Humidity: 83%
2020/09/25 08:00 CXVN 250800Z AUTO 19004KT 16/13 RMK AO1 SLP151 T01580130 50003
CYTZ - Toronto Il Vor, Ontario, Canada
Distance from station: NW 50mi, 81km
Updated: 09/25/2020 4:47am
Mist, Clear
Mist, Clear
 Wind from ESE
Wind: ESE 3 mph , 6 km/h
Temperature: 61°F , 16°C
Dew Point: 61°F , 16°C
Humidity: 100%
Barometer: 1015.2 hPa
Summary: Mist
Clouds: Clear
Visibility: 3/4 mile , 1.2 km
2020/09/25 08:47 CYTZ 250847Z AUTO 12003KT 3/4SM R08/4000V6000FT/ BR CLR 16/16 A2998 RMK SLP154 DENSITY ALT 300FT
 
CXTO - Toronto City, Ontario, Canada
Distance from station: NW 52mi, 84km
Updated: 09/25/2020 4:00am

 
Temperature: 63°F , 17°C
Dew Point: 57°F , 14°C
Humidity: 83%
2020/09/25 08:00 CXTO 250800Z AUTO 17/14 RMK AO1 SLP156 T01670138 52003
KDKK - Dunkirk, New York, USA
Distance from station: SW 52mi, 84km
Updated: 09/25/2020 4:53am
Clear
Clear
 Wind from calm
Wind: Calm
Temperature: 57°F , 14°C
Dew Point: 54°F , 12°C
Humidity: 88%
Barometer: 1016.6 hPa
Clouds: Clear
Visibility: 10 miles , 16 km
2020/09/25 08:53 KDKK 250853Z AUTO 00000KT 10SM CLR 14/12 A3002 RMK AO2 SLP162 T01440117 58001 $
 
CYOO - Oshawa, Ontario, Canada
Distance from station: N 56mi, 90km
Updated: 09/25/2020 4:00am
Overcast
Overcast
 Wind from NNE
Wind: NNE 2 mph , 4 km/h
Temperature: 61°F , 16°C
Dew Point: 57°F , 14°C
Humidity: 88%
Barometer: 1015.2 hPa
Clouds: Overcast
Visibility: 9 miles , 14 km
Cloud details: Few Clouds 15000 ft
Overcast 17000 ft
2020/09/25 08:00 CYOO 250800Z AUTO 03002KT 9SM FEW150 OVC170 16/14 A2998 RMK SLP154 DENSITY ALT 600FT
CWWB - Burlington Piers, Ontario, Canada
Distance from station: WNW 56mi, 91km
Updated: 09/25/2020 4:00am

 Wind from SW
Wind: SW 6 mph , 9 km/h
Temperature: 64°F , 18°C
Dew Point: 57°F , 14°C
Humidity: 78%
2020/09/25 08:00 CWWB 250800Z AUTO 23005KT 18/14 RMK AO1 SLP151 T01790143 50001
 
CYYZ - Toronto/Pearson, Ontario, Canada
Distance from station: NW 60mi, 96km
Updated: 09/25/2020 4:00am
Partly cloudy
Partly cloudy
 Wind from NNE
Wind: NNE 5 mph , 7 km/h
Temperature: 63°F , 17°C
Dew Point: 57°F , 14°C
Humidity: 83%
Barometer: 1015.2 hPa
Clouds: Partly cloudy
Visibility: 15 miles , 24 km
Cloud details: Partly cloudy 16000 ft
2020/09/25 08:00 CYYZ 250800Z 03004KT 15SM SCT160 17/14 A2998 RMK AC4 SLP152 DENSITY ALT 900FT
CYKZ - Toronto Buttonvi, Ontario, Canada
Distance from station: NW 62mi, 99km
Updated: 01/03/2019 4:00am
NOT Current
Partly cloudy
Partly cloudy
 Wind from WSW
Wind: WSW 5 mph , 7 km/h
Temperature: 27°F , -3°C
Wind Chill: 21°F , -6°C
Dew Point: 23°F , -5°C
Humidity: 86%
Barometer: 1010.8 hPa
Clouds: Partly cloudy
Visibility: 15 miles , 24 km
Cloud details: Partly cloudy 4000 ft
2019/01/03 09:00 CYKZ 030900Z 25004KT 15SM SCT040 M03/M05 A2985 RMK SC3 LAST STFD OBS FAREWELL SLP118
 
CXHM - Hamilton Rbg Cs, Ontario, Canada
Distance from station: W 62mi, 100km
Updated: 09/25/2020 4:00am

 Wind from W
Wind: W 2 mph , 4 km/h
Temperature: 61°F , 16°C
Dew Point: 55°F , 13°C
Humidity: 83%
2020/09/25 08:00 CXHM 250800Z AUTO 26002KT 16/13 RMK AO1 SLP148 T01570131 50000
KDSV - Dansville, New York, USA
Distance from station: SE 62mi, 100km
Updated: 09/25/2020 4:54am
Clear
Clear
 Wind from SE
Wind: SE 10 mph , 17 km/h
Temperature: 57°F , 14°C
Dew Point: 54°F , 12°C
Humidity: 88%
Barometer: 1017.3 hPa
Clouds: Clear
Visibility: 10 miles , 16 km
2020/09/25 08:54 KDSV 250854Z AUTO 13009KT 10SM CLR 14/12 A3004 RMK AO2 SLP178 T01390117 51002
 
CYHM - Hamilton Airport, Ontario, Canada
Distance from station: W 63mi, 101km
Updated: 09/25/2020 4:00am
Shallow fog, Few clouds
Shallow fog, Few clouds
 Wind from SW
Wind: SW 6 mph , 9 km/h
Temperature: 54°F , 12°C
Dew Point: 54°F , 12°C
Humidity: 100%
Barometer: 1015.6 hPa
Summary: Shallow Fog
Clouds: Few Clouds
Visibility: 15 miles , 24 km
Cloud details: Few Clouds 15000 ft
Few Clouds 25000 ft
2020/09/25 08:00 CYHM 250800Z 22005KT 15SM MIFG FEW150 FEW250 12/12 A2999 RMK AC1CI1 SLP157
CWNC - Cobourg (mars), Ontario, Canada
Distance from station: NNE 63mi, 102km
Updated: 09/25/2020 4:00am

 Wind from NE
Wind: NE 3 mph , 6 km/h
Temperature: 61°F , 16°C
Dew Point: 55°F , 13°C
Humidity: 83%
2020/09/25 08:00 CWNC 250800Z AUTO 05003KT 16/13 RMK AO1 SLP155 T01570134 53002